Time;durP1;ratioP1;P1;durP2;ratioP2;P2;SDS_P1;SDS_P2;PMS_P1;PMS_P2;Temp;Humidity;BMP_temperature;BMP_pressure;BME280_temperature;BME280_humidity;BME280_pressure;Samples;Min_cycle;Max_cycle;Signal;HPM_P1;HPM_P2
2024/02/19 00:00:56;;;;;;;3.60;2.83;;;;;;;;;;5021207;28;20034;-77
2024/02/19 00:03:22;;;;;;;3.45;2.03;;;;;;;;;;5019962;28;20025;-78
2024/02/19 00:05:50;;;;;;;2.83;2.08;;;;;;;;;;5035948;28;20026;-78
2024/02/19 00:08:16;;;;;;;1.95;1.70;;;;;;;;;;5031482;28;20026;-78
2024/02/19 00:10:42;;;;;;;2.75;2.20;;;;;;;;;;5016424;28;20032;-78
2024/02/19 00:13:09;;;;;;;1.77;1.67;;;;;;;;;;5023895;28;20312;-77
2024/02/19 00:15:35;;;;;;;3.58;2.30;;;;;;;;;;5022924;28;20041;-79
2024/02/19 00:18:02;;;;;;;2.92;2.28;;;;;;;;;;5023009;28;20045;-77
2024/02/19 00:20:28;;;;;;;2.00;1.80;;;;;;;;;;5020223;28;20030;-78
2024/02/19 00:22:54;;;;;;;2.25;1.80;;;;;;;;;;5022306;28;20026;-77
2024/02/19 00:25:20;;;;;;;2.25;1.98;;;;;;;;;;5022949;28;20029;-78
2024/02/19 00:27:46;;;;;;;2.45;1.80;;;;;;;;;;5026796;28;20061;-77
2024/02/19 00:30:12;;;;;;;2.25;1.77;;;;;;;;;;5035236;28;20008;-77
2024/02/19 00:32:39;;;;;;;3.55;1.83;;;;;;;;;;5035014;28;20048;-76
2024/02/19 00:35:05;;;;;;;2.83;1.98;;;;;;;;;;5036066;28;20032;-77
2024/02/19 00:37:32;;;;;;;4.10;1.30;;;;;;;;;;5035677;28;20044;-76
2024/02/19 00:39:58;;;;;;;2.55;1.77;;;;;;;;;;5044452;28;20037;-78
2024/02/19 00:42:28;;;;;;;2.03;1.40;;;;;;;;;;5033522;28;20053;-77
2024/02/19 00:44:54;;;;;;;1.90;1.27;;;;;;;;;;5035300;28;20025;-76
2024/02/19 00:47:20;;;;;;;1.52;1.30;;;;;;;;;;5047399;28;20046;-78
2024/02/19 00:49:46;;;;;;;1.50;1.40;;;;;;;;;;5049971;28;20124;-75
2024/02/19 00:52:12;;;;;;;1.45;1.35;;;;;;;;;;5036303;28;20030;-76
2024/02/19 00:54:38;;;;;;;1.45;1.35;;;;;;;;;;5036107;28;20056;-76
2024/02/19 00:57:04;;;;;;;2.25;1.38;;;;;;;;;;5039524;28;20107;-75
2024/02/19 00:59:30;;;;;;;2.05;1.30;;;;;;;;;;5041060;28;20018;-76
2024/02/19 01:01:56;;;;;;;1.42;1.33;;;;;;;;;;5051898;28;20030;-76
2024/02/19 01:04:22;;;;;;;1.23;1.13;;;;;;;;;;5049454;28;20025;-76
2024/02/19 01:06:48;;;;;;;2.17;1.30;;;;;;;;;;5042745;28;20042;-77
2024/02/19 01:09:16;;;;;;;1.10;1.00;;;;;;;;;;5036894;28;20032;-77
2024/02/19 01:11:42;;;;;;;1.42;1.33;;;;;;;;;;5036920;28;20052;-76
2024/02/19 01:14:08;;;;;;;1.10;1.00;;;;;;;;;;5026321;28;20108;-77
2024/02/19 01:16:34;;;;;;;0.80;0.77;;;;;;;;;;5026653;28;20059;-78
2024/02/19 01:19:00;;;;;;;0.70;0.70;;;;;;;;;;5035737;28;20384;-76
2024/02/19 01:21:26;;;;;;;1.60;0.80;;;;;;;;;;5023130;28;20026;-77
2024/02/19 01:23:53;;;;;;;0.80;0.80;;;;;;;;;;5018253;28;20378;-78
2024/02/19 01:26:22;;;;;;;0.85;0.80;;;;;;;;;;5020305;28;20070;-77
2024/02/19 01:28:48;;;;;;;1.70;0.80;;;;;;;;;;5025453;28;20057;-79
2024/02/19 01:31:15;;;;;;;0.40;0.40;;;;;;;;;;5016417;28;20029;-77
2024/02/19 01:33:41;;;;;;;0.40;0.35;;;;;;;;;;5015851;28;20370;-78
2024/02/19 01:36:08;;;;;;;0.40;0.40;;;;;;;;;;5015980;28;20105;-78
2024/02/19 01:38:35;;;;;;;0.40;0.40;;;;;;;;;;5016801;28;20090;-78
2024/02/19 01:41:02;;;;;;;0.40;0.40;;;;;;;;;;5041774;28;20025;-78
2024/02/19 01:43:28;;;;;;;0.40;0.40;;;;;;;;;;5017011;28;20030;-78
2024/02/19 01:45:54;;;;;;;0.30;0.30;;;;;;;;;;5017125;28;20082;-78
2024/02/19 01:48:20;;;;;;;0.20;0.20;;;;;;;;;;5019034;28;20540;-78
2024/02/19 01:50:47;;;;;;;0.30;0.30;;;;;;;;;;5021643;28;20026;-78
2024/02/19 01:53:14;;;;;;;0.00;0.00;;;;;;;;;;5020047;28;20473;-77
2024/02/19 01:55:40;;;;;;;0.20;0.20;;;;;;;;;;5018393;28;20018;-79
2024/02/19 01:58:07;;;;;;;1.10;0.32;;;;;;;;;;5019570;28;20014;-78
2024/02/19 02:00:33;;;;;;;0.25;0.20;;;;;;;;;;5037534;28;20033;-77
2024/02/19 02:03:00;;;;;;;0.20;0.20;;;;;;;;;;5033228;28;20040;-78
2024/02/19 02:05:26;;;;;;;0.25;0.20;;;;;;;;;;5036251;28;20026;-78
2024/02/19 02:07:53;;;;;;;0.10;0.10;;;;;;;;;;5020146;28;20109;-78
2024/02/19 02:10:19;;;;;;;0.10;0.10;;;;;;;;;;5020852;28;20014;-78
2024/02/19 02:12:46;;;;;;;0.30;0.17;;;;;;;;;;5021610;28;20046;-78
2024/02/19 02:15:12;;;;;;;0.38;0.10;;;;;;;;;;5017986;28;20080;-77
2024/02/19 02:17:38;;;;;;;0.10;0.10;;;;;;;;;;5018308;28;20018;-77
2024/02/19 02:20:04;;;;;;;0.77;0.10;;;;;;;;;;5017364;28;20030;-78
2024/02/19 02:22:31;;;;;;;0.20;0.20;;;;;;;;;;5019239;28;20424;-77
2024/02/19 02:24:57;;;;;;;0.03;0.03;;;;;;;;;;5018813;28;20079;-76
2024/02/19 02:27:23;;;;;;;0.10;0.08;;;;;;;;;;5018482;28;20554;-78
2024/02/19 02:29:49;;;;;;;2.97;0.25;;;;;;;;;;5017357;28;20071;-77
2024/02/19 02:32:15;;;;;;;0.40;0.10;;;;;;;;;;5018884;28;20507;-79
2024/02/19 02:34:41;;;;;;;0.10;0.10;;;;;;;;;;5019867;28;20025;-77
2024/02/19 02:37:07;;;;;;;0.10;0.10;;;;;;;;;;5020133;28;20030;-77
2024/02/19 02:39:33;;;;;;;0.22;0.10;;;;;;;;;;5023546;28;20109;-77
2024/02/19 02:41:59;;;;;;;0.10;0.00;;;;;;;;;;5027506;28;20030;-77
2024/02/19 02:44:25;;;;;;;0.10;0.00;;;;;;;;;;5021233;28;20044;-78
2024/02/19 02:46:51;;;;;;;0.10;0.10;;;;;;;;;;5017598;28;20067;-78
2024/02/19 02:49:18;;;;;;;0.20;0.10;;;;;;;;;;5038133;28;20026;-76
2024/02/19 02:51:44;;;;;;;0.20;0.10;;;;;;;;;;5033408;28;20010;-77
2024/02/19 02:54:10;;;;;;;0.05;0.00;;;;;;;;;;5024122;28;20029;-78
2024/02/19 02:56:36;;;;;;;0.00;0.00;;;;;;;;;;5022156;28;20464;-77
2024/02/19 02:59:02;;;;;;;0.10;0.10;;;;;;;;;;5022021;28;20030;-78
2024/02/19 03:01:29;;;;;;;0.20;0.05;;;;;;;;;;5031392;28;20029;-77
2024/02/19 03:03:56;;;;;;;0.25;0.05;;;;;;;;;;5017378;28;20032;-77
2024/02/19 03:06:22;;;;;;;0.00;0.00;;;;;;;;;;5016963;28;20408;-78
2024/02/19 03:08:48;;;;;;;0.52;0.00;;;;;;;;;;5017910;28;20559;-77
2024/02/19 03:11:15;;;;;;;0.30;0.10;;;;;;;;;;5017081;28;20030;-77
2024/02/19 03:13:41;;;;;;;0.40;0.10;;;;;;;;;;5017206;28;20052;-77
2024/02/19 03:16:08;;;;;;;0.00;0.00;;;;;;;;;;5016889;28;20154;-78
2024/02/19 03:18:34;;;;;;;0.10;0.10;;;;;;;;;;5016219;28;20076;-77
2024/02/19 03:21:00;;;;;;;0.20;0.20;;;;;;;;;;5016644;28;20026;-77
2024/02/19 03:23:27;;;;;;;0.47;0.10;;;;;;;;;;5019939;28;20476;-78
2024/02/19 03:25:53;;;;;;;0.10;0.10;;;;;;;;;;5025741;28;20112;-77
2024/02/19 03:28:19;;;;;;;0.32;0.10;;;;;;;;;;5034045;28;20048;-76
2024/02/19 03:30:46;;;;;;;0.00;0.00;;;;;;;;;;5041921;28;20034;-76
2024/02/19 03:33:12;;;;;;;0.10;0.10;;;;;;;;;;5017323;28;20461;-78
2024/02/19 03:35:38;;;;;;;0.38;0.20;;;;;;;;;;5017652;28;20026;-78
2024/02/19 03:38:04;;;;;;;0.00;0.00;;;;;;;;;;5034494;28;20268;-77
2024/02/19 03:40:30;;;;;;;0.00;0.00;;;;;;;;;;5024482;28;20030;-78
2024/02/19 03:42:56;;;;;;;0.00;0.00;;;;;;;;;;5020605;28;20057;-78
2024/02/19 03:45:23;;;;;;;0.40;0.40;;;;;;;;;;5020858;28;20022;-78
2024/02/19 03:47:49;;;;;;;0.20;0.20;;;;;;;;;;5019003;28;20057;-77
2024/02/19 03:50:16;;;;;;;0.00;0.00;;;;;;;;;;5023751;28;20021;-77
2024/02/19 03:52:43;;;;;;;0.03;0.00;;;;;;;;;;5024539;28;20021;-78
2024/02/19 03:55:09;;;;;;;0.15;0.15;;;;;;;;;;5025741;28;20010;-77
2024/02/19 03:57:35;;;;;;;0.10;0.10;;;;;;;;;;5022679;28;20416;-78
2024/02/19 04:00:05;;;;;;;0.17;0.17;;;;;;;;;;5023963;28;20026;-77
2024/02/19 04:02:31;;;;;;;0.00;0.00;;;;;;;;;;5028028;28;20014;-77
2024/02/19 04:04:57;;;;;;;0.00;0.00;;;;;;;;;;5033186;28;20292;-78
2024/02/19 04:07:24;;;;;;;0.52;0.20;;;;;;;;;;5017156;28;20074;-77
2024/02/19 04:09:50;;;;;;;0.32;0.10;;;;;;;;;;5017399;28;20025;-77
2024/02/19 04:12:16;;;;;;;0.00;0.00;;;;;;;;;;5033915;28;20014;-78
2024/02/19 04:14:42;;;;;;;0.10;0.10;;;;;;;;;;5029868;28;20052;-76
2024/02/19 04:17:08;;;;;;;0.00;0.00;;;;;;;;;;5020485;28;20027;-77
2024/02/19 04:19:34;;;;;;;0.10;0.10;;;;;;;;;;5029613;28;20082;-76
2024/02/19 04:22:00;;;;;;;0.10;0.10;;;;;;;;;;5030368;28;20026;-78
2024/02/19 04:24:26;;;;;;;0.10;0.10;;;;;;;;;;5044469;28;20026;-78
2024/02/19 04:26:52;;;;;;;0.10;0.10;;;;;;;;;;5032178;28;20026;-79
2024/02/19 04:29:18;;;;;;;0.10;0.10;;;;;;;;;;5017818;28;20017;-78
2024/02/19 04:31:45;;;;;;;0.47;0.10;;;;;;;;;;5018108;28;20058;-78
2024/02/19 04:34:11;;;;;;;0.10;0.10;;;;;;;;;;5018850;28;20025;-78
2024/02/19 04:36:37;;;;;;;0.75;0.20;;;;;;;;;;5015973;28;20049;-79
2024/02/19 04:39:04;;;;;;;0.10;0.10;;;;;;;;;;5033623;28;20061;-79
2024/02/19 04:41:30;;;;;;;0.32;0.30;;;;;;;;;;5024262;28;20531;-79
2024/02/19 04:43:56;;;;;;;0.25;0.25;;;;;;;;;;5021001;28;20041;-78
2024/02/19 04:46:22;;;;;;;0.10;0.10;;;;;;;;;;5034565;28;20122;-77
2024/02/19 04:48:48;;;;;;;0.10;0.10;;;;;;;;;;5026610;28;20026;-76
2024/02/19 04:51:14;;;;;;;0.52;0.20;;;;;;;;;;5042318;28;20085;-77
2024/02/19 04:53:40;;;;;;;0.85;0.20;;;;;;;;;;5024130;28;20018;-78
2024/02/19 04:56:06;;;;;;;0.30;0.30;;;;;;;;;;5021344;28;20018;-78
2024/02/19 04:58:32;;;;;;;0.17;0.17;;;;;;;;;;5016502;28;20030;-77
2024/02/19 05:00:58;;;;;;;0.10;0.10;;;;;;;;;;5016728;28;20034;-77
2024/02/19 05:03:25;;;;;;;0.25;0.20;;;;;;;;;;5015961;28;20030;-78
2024/02/19 05:05:51;;;;;;;0.52;0.20;;;;;;;;;;5019993;28;20469;-76
2024/02/19 05:08:17;;;;;;;0.30;0.20;;;;;;;;;;5034154;28;20022;-77
2024/02/19 05:10:43;;;;;;;0.57;0.30;;;;;;;;;;5032612;28;20018;-77
2024/02/19 05:13:09;;;;;;;0.17;0.10;;;;;;;;;;5042942;28;20018;-79
2024/02/19 05:15:35;;;;;;;0.10;0.10;;;;;;;;;;5032105;28;20022;-77
2024/02/19 05:18:02;;;;;;;0.20;0.20;;;;;;;;;;5031377;28;20022;-78
2024/02/19 05:20:28;;;;;;;0.00;0.00;;;;;;;;;;5024910;28;20084;-77
2024/02/19 05:22:54;;;;;;;0.40;0.15;;;;;;;;;;5018395;28;20064;-76
2024/02/19 05:25:21;;;;;;;0.20;0.15;;;;;;;;;;5020966;28;20500;-77
2024/02/19 05:27:47;;;;;;;0.65;0.50;;;;;;;;;;5028038;28;20021;-78
2024/02/19 05:30:13;;;;;;;0.30;0.28;;;;;;;;;;5020117;28;20381;-77
2024/02/19 05:32:39;;;;;;;0.15;0.15;;;;;;;;;;5020929;28;20041;-77
2024/02/19 05:35:05;;;;;;;0.90;0.43;;;;;;;;;;5022920;28;20030;-78
2024/02/19 05:37:32;;;;;;;0.20;0.20;;;;;;;;;;5023585;28;20026;-78
2024/02/19 05:39:59;;;;;;;0.30;0.30;;;;;;;;;;5024364;28;20101;-78
2024/02/19 05:42:25;;;;;;;0.13;0.13;;;;;;;;;;5023643;28;20033;-78
2024/02/19 05:44:51;;;;;;;0.20;0.20;;;;;;;;;;5024130;28;20026;-77
2024/02/19 05:47:17;;;;;;;0.25;0.20;;;;;;;;;;5026106;28;20304;-78
2024/02/19 05:49:43;;;;;;;0.20;0.20;;;;;;;;;;5029123;28;20536;-78
2024/02/19 05:52:09;;;;;;;1.10;0.40;;;;;;;;;;5020617;28;20033;-76
2024/02/19 05:54:36;;;;;;;0.45;0.30;;;;;;;;;;5022386;28;20018;-78
2024/02/19 05:57:02;;;;;;;0.88;0.40;;;;;;;;;;5034522;28;20022;-78
2024/02/19 05:59:28;;;;;;;0.30;0.30;;;;;;;;;;5022077;28;20021;-78
2024/02/19 06:01:54;;;;;;;0.60;0.60;;;;;;;;;;5020037;28;20026;-78
2024/02/19 06:04:20;;;;;;;1.85;0.77;;;;;;;;;;5021133;28;20018;-79
2024/02/19 06:06:46;;;;;;;0.50;0.50;;;;;;;;;;5035216;28;20109;-77
2024/02/19 06:09:12;;;;;;;1.00;0.93;;;;;;;;;;5024089;28;20045;-79
2024/02/19 06:11:44;;;;;;;0.55;0.55;;;;;;;;;;5018897;28;20033;-78
2024/02/19 06:14:10;;;;;;;0.77;0.70;;;;;;;;;;5027224;28;20425;-77
2024/02/19 06:16:37;;;;;;;1.52;0.88;;;;;;;;;;5034022;28;20113;-77
2024/02/19 06:19:03;;;;;;;0.60;0.60;;;;;;;;;;5020647;28;20061;-78
2024/02/19 06:21:29;;;;;;;0.75;0.60;;;;;;;;;;5020948;28;20033;-78
2024/02/19 06:23:55;;;;;;;0.50;0.50;;;;;;;;;;5042282;28;20412;-77
2024/02/19 06:26:21;;;;;;;1.17;0.63;;;;;;;;;;5026482;28;20021;-77
2024/02/19 06:28:47;;;;;;;0.70;0.70;;;;;;;;;;5034532;28;20037;-77
2024/02/19 06:31:13;;;;;;;1.90;1.00;;;;;;;;;;5039006;28;20018;-75
2024/02/19 06:33:40;;;;;;;0.50;0.50;;;;;;;;;;5060346;28;20021;-77
2024/02/19 06:36:06;;;;;;;2.58;0.70;;;;;;;;;;5038751;28;20107;-76
2024/02/19 06:38:32;;;;;;;0.85;0.70;;;;;;;;;;5037597;28;20056;-77
2024/02/19 06:40:58;;;;;;;0.77;0.77;;;;;;;;;;5038088;28;20014;-76
2024/02/19 06:43:24;;;;;;;1.65;0.80;;;;;;;;;;5038264;28;20038;-76
2024/02/19 06:45:52;;;;;;;1.02;0.90;;;;;;;;;;5038148;28;20014;-75
2024/02/19 06:48:18;;;;;;;1.55;0.90;;;;;;;;;;5051103;28;20602;-78
2024/02/19 06:50:45;;;;;;;2.90;0.90;;;;;;;;;;5033789;28;20045;-77
2024/02/19 06:53:11;;;;;;;0.70;0.70;;;;;;;;;;5048622;28;20428;-77
2024/02/19 06:55:37;;;;;;;0.60;0.60;;;;;;;;;;5031050;28;20044;-75
2024/02/19 06:58:03;;;;;;;1.05;0.95;;;;;;;;;;5038878;28;20021;-77
2024/02/19 07:00:29;;;;;;;2.22;1.00;;;;;;;;;;5031523;28;20026;-77
2024/02/19 07:02:55;;;;;;;0.82;0.73;;;;;;;;;;5039088;28;20025;-77
2024/02/19 07:05:21;;;;;;;0.60;0.60;;;;;;;;;;5020725;28;20097;-77
2024/02/19 07:07:48;;;;;;;1.27;0.60;;;;;;;;;;5039390;28;20034;-77
2024/02/19 07:10:14;;;;;;;0.68;0.47;;;;;;;;;;5042244;28;20052;-77
2024/02/19 07:12:40;;;;;;;0.95;0.50;;;;;;;;;;5016175;28;20403;-75
2024/02/19 07:15:07;;;;;;;0.50;0.50;;;;;;;;;;5028108;28;20059;-76
2024/02/19 07:17:34;;;;;;;1.15;0.60;;;;;;;;;;5032088;28;20032;-77
2024/02/19 07:20:00;;;;;;;0.30;0.30;;;;;;;;;;5032637;28;20037;-76
2024/02/19 07:22:26;;;;;;;1.83;0.60;;;;;;;;;;5028090;28;20034;-77
2024/02/19 07:24:52;;;;;;;0.50;0.50;;;;;;;;;;5027567;28;20041;-77
2024/02/19 07:27:18;;;;;;;0.40;0.40;;;;;;;;;;5045166;28;20029;-78
2024/02/19 07:29:44;;;;;;;1.02;0.60;;;;;;;;;;5031942;28;20092;-77
2024/02/19 07:32:11;;;;;;;1.27;0.30;;;;;;;;;;5030612;28;20480;-78
2024/02/19 07:34:37;;;;;;;0.47;0.45;;;;;;;;;;5030367;28;20025;-78
2024/02/19 07:37:03;;;;;;;0.32;0.32;;;;;;;;;;5028932;28;20037;-76
2024/02/19 07:39:29;;;;;;;0.20;0.20;;;;;;;;;;5027513;28;20046;-78
2024/02/19 07:41:55;;;;;;;0.65;0.50;;;;;;;;;;5030888;28;20089;-77
2024/02/19 07:44:22;;;;;;;2.03;0.70;;;;;;;;;;5030340;28;20018;-77
2024/02/19 07:46:48;;;;;;;0.70;0.70;;;;;;;;;;5030122;28;20045;-76
2024/02/19 07:49:14;;;;;;;1.38;0.95;;;;;;;;;;5030614;28;20026;-77
2024/02/19 07:51:40;;;;;;;0.60;0.60;;;;;;;;;;5030858;28;20032;-78
2024/02/19 07:54:07;;;;;;;1.38;0.88;;;;;;;;;;5032512;28;20046;-78
2024/02/19 07:56:35;;;;;;;1.02;0.98;;;;;;;;;;5046364;28;20036;-78
2024/02/19 07:59:01;;;;;;;1.23;0.50;;;;;;;;;;5045571;28;20034;-78
2024/02/19 08:01:27;;;;;;;0.65;0.50;;;;;;;;;;5034674;28;20049;-76
2024/02/19 08:03:54;;;;;;;0.50;0.50;;;;;;;;;;5029534;28;20016;-77
2024/02/19 08:06:20;;;;;;;1.10;0.90;;;;;;;;;;5027369;28;20126;-77
2024/02/19 08:08:49;;;;;;;1.08;0.70;;;;;;;;;;5030987;28;20029;-78
2024/02/19 08:11:15;;;;;;;0.73;0.40;;;;;;;;;;5023192;28;20052;-78
2024/02/19 08:13:44;;;;;;;0.88;0.70;;;;;;;;;;5030967;28;20018;-78
2024/02/19 08:16:13;;;;;;;0.45;0.45;;;;;;;;;;5030374;28;20018;-77
2024/02/19 08:18:39;;;;;;;0.80;0.80;;;;;;;;;;5024766;28;20033;-78
2024/02/19 08:21:05;;;;;;;0.77;0.63;;;;;;;;;;5028953;28;20037;-77
2024/02/19 08:23:31;;;;;;;1.25;0.68;;;;;;;;;;5024267;28;20029;-78
2024/02/19 08:25:59;;;;;;;0.68;0.60;;;;;;;;;;5026683;28;20032;-76
2024/02/19 08:28:25;;;;;;;2.45;0.80;;;;;;;;;;5030449;28;20022;-77
2024/02/19 08:30:51;;;;;;;0.60;0.60;;;;;;;;;;5046046;28;20088;-77
2024/02/19 08:33:17;;;;;;;0.80;0.70;;;;;;;;;;5045751;28;20473;-77
2024/02/19 08:35:43;;;;;;;1.60;0.90;;;;;;;;;;5025608;28;20021;-77
2024/02/19 08:38:10;;;;;;;1.27;0.80;;;;;;;;;;5027354;28;20101;-76
2024/02/19 08:40:36;;;;;;;4.13;1.02;;;;;;;;;;5037761;28;20522;-77
2024/02/19 08:43:02;;;;;;;1.17;1.00;;;;;;;;;;5046064;28;20401;-77
2024/02/19 08:45:29;;;;;;;1.30;1.15;;;;;;;;;;5030147;28;20032;-77
2024/02/19 08:47:55;;;;;;;0.88;0.80;;;;;;;;;;5030628;28;20030;-78
2024/02/19 08:50:21;;;;;;;2.00;0.90;;;;;;;;;;5042546;28;20027;-77
2024/02/19 08:52:47;;;;;;;0.82;0.82;;;;;;;;;;5022906;28;20109;-77
2024/02/19 08:55:13;;;;;;;4.05;1.15;;;;;;;;;;5039154;28;20071;-77
2024/02/19 08:57:39;;;;;;;2.28;0.90;;;;;;;;;;5030857;28;20105;-76
2024/02/19 09:00:06;;;;;;;1.00;0.77;;;;;;;;;;5029272;28;20034;-77
2024/02/19 09:02:32;;;;;;;1.65;0.88;;;;;;;;;;5029410;28;20033;-77
2024/02/19 09:04:58;;;;;;;0.95;0.75;;;;;;;;;;5029880;28;20480;-77
2024/02/19 09:07:24;;;;;;;1.30;1.00;;;;;;;;;;5029093;28;20061;-77
2024/02/19 09:09:51;;;;;;;4.03;1.30;;;;;;;;;;5039549;28;20026;-78
2024/02/19 09:12:17;;;;;;;4.47;1.23;;;;;;;;;;5033312;28;20032;-78
2024/02/19 09:14:43;;;;;;;1.58;1.02;;;;;;;;;;5024384;28;20064;-78
2024/02/19 09:17:09;;;;;;;1.55;1.30;;;;;;;;;;5019772;28;20397;-78
2024/02/19 09:19:35;;;;;;;4.03;1.20;;;;;;;;;;5018289;28;20385;-78
2024/02/19 09:22:02;;;;;;;3.85;1.25;;;;;;;;;;5033449;28;20504;-78
2024/02/19 09:24:29;;;;;;;2.40;1.15;;;;;;;;;;5018146;28;20022;-76
2024/02/19 09:26:55;;;;;;;5.28;1.38;;;;;;;;;;5020105;28;20028;-79
2024/02/19 09:29:21;;;;;;;1.55;1.00;;;;;;;;;;5030519;28;20022;-79
2024/02/19 09:31:47;;;;;;;2.03;1.20;;;;;;;;;;5032092;28;20057;-78
2024/02/19 09:34:14;;;;;;;7.20;1.98;;;;;;;;;;5016940;28;20094;-77
2024/02/19 09:36:43;;;;;;;15.57;9.48;;;;;;;;;;5031034;28;20049;-78
2024/02/19 09:39:10;;;;;;;4.13;2.20;;;;;;;;;;5017672;28;20049;-80
2024/02/19 09:41:36;;;;;;;2.15;1.63;;;;;;;;;;5018132;28;20388;-79
2024/02/19 09:44:05;;;;;;;5.70;3.28;;;;;;;;;;5017413;28;20029;-80
2024/02/19 09:46:31;;;;;;;3.03;2.15;;;;;;;;;;5018918;28;20400;-78
2024/02/19 09:48:59;;;;;;;3.00;1.50;;;;;;;;;;5031698;28;20030;-78
2024/02/19 09:51:26;;;;;;;3.05;2.38;;;;;;;;;;5047800;28;20038;-78
2024/02/19 09:53:52;;;;;;;3.38;2.08;;;;;;;;;;5023997;28;20413;-78
2024/02/19 09:56:22;;;;;;;4.40;3.45;;;;;;;;;;5031648;28;20109;-78
2024/02/19 09:58:52;;;;;;;4.82;3.22;;;;;;;;;;5023164;28;20026;-78
2024/02/19 10:01:18;;;;;;;5.75;4.55;;;;;;;;;;5025164;28;20026;-78
2024/02/19 10:03:45;;;;;;;10.75;6.97;;;;;;;;;;5028636;28;20397;-78
2024/02/19 10:06:11;;;;;;;8.27;5.50;;;;;;;;;;5022212;28;20037;-78
2024/02/19 10:08:37;;;;;;;4.00;2.15;;;;;;;;;;5021729;28;20053;-79
2024/02/19 10:11:08;;;;;;;3.92;2.40;;;;;;;;;;5022978;28;20030;-79
2024/02/19 10:13:37;;;;;;;4.72;3.58;;;;;;;;;;5023597;28;20056;-77
2024/02/19 10:16:07;;;;;;;3.63;2.65;;;;;;;;;;5028732;28;20036;-76
2024/02/19 10:18:33;;;;;;;4.30;2.53;;;;;;;;;;5026833;28;20026;-78
2024/02/19 10:20:59;;;;;;;3.90;2.38;;;;;;;;;;5038975;28;20026;-78
2024/02/19 10:23:25;;;;;;;5.53;3.72;;;;;;;;;;5021452;28;20025;-78
2024/02/19 10:25:52;;;;;;;7.47;5.28;;;;;;;;;;5030506;28;20022;-78
2024/02/19 10:28:21;;;;;;;3.88;2.95;;;;;;;;;;5045044;28;20022;-77
2024/02/19 10:30:48;;;;;;;2.42;2.10;;;;;;;;;;5021761;28;20041;-78
2024/02/19 10:33:14;;;;;;;3.47;1.52;;;;;;;;;;5020916;28;20017;-79
2024/02/19 10:35:40;;;;;;;2.08;0.60;;;;;;;;;;5021711;28;20041;-78
2024/02/19 10:38:07;;;;;;;1.65;0.50;;;;;;;;;;5027945;28;20523;-78
2024/02/19 10:40:33;;;;;;;1.55;0.40;;;;;;;;;;5021320;28;20038;-77
2024/02/19 10:43:00;;;;;;;1.25;0.60;;;;;;;;;;5030024;28;20097;-79
2024/02/19 10:45:28;;;;;;;0.75;0.45;;;;;;;;;;5021994;28;20461;-77
2024/02/19 10:47:55;;;;;;;2.17;1.30;;;;;;;;;;5021809;28;20091;-78
2024/02/19 10:50:21;;;;;;;3.28;0.70;;;;;;;;;;5021837;28;20072;-78
2024/02/19 10:52:48;;;;;;;1.67;0.77;;;;;;;;;;5022480;28;20044;-78
2024/02/19 10:55:15;;;;;;;2.97;0.70;;;;;;;;;;5034710;28;20022;-78
2024/02/19 10:57:54;;;;;;;2.38;0.80;;;;;;;;;;5032167;28;20378;-77
2024/02/19 11:00:27;;;;;;;1.00;0.60;;;;;;;;;;5039939;28;20044;-82
2024/02/19 11:03:07;;;;;;;1.65;0.50;;;;;;;;;;5023478;28;20021;-77
2024/02/19 11:05:41;;;;;;;3.70;0.70;;;;;;;;;;5020060;28;20113;-77
2024/02/19 11:08:34;;;;;;;3.17;0.80;;;;;;;;;;5035815;28;20033;-79
2024/02/19 11:11:03;;;;;;;0.35;0.35;;;;;;;;;;5021942;28;20105;-78
2024/02/19 11:13:29;;;;;;;2.15;0.57;;;;;;;;;;5041964;28;20018;-78
2024/02/19 11:15:56;;;;;;;0.80;0.63;;;;;;;;;;5021013;28;20018;-77
2024/02/19 11:18:22;;;;;;;2.85;0.65;;;;;;;;;;5029658;28;20408;-78
2024/02/19 11:20:49;;;;;;;2.88;0.77;;;;;;;;;;5024853;28;20085;-79
2024/02/19 11:23:16;;;;;;;1.27;0.70;;;;;;;;;;5030346;28;20029;-79
2024/02/19 11:25:43;;;;;;;5.03;0.68;;;;;;;;;;5035563;28;20025;-78
2024/02/19 11:28:11;;;;;;;0.82;0.50;;;;;;;;;;5019208;28;20079;-78
2024/02/19 11:30:37;;;;;;;1.35;0.60;;;;;;;;;;5020571;28;20026;-77
2024/02/19 11:33:04;;;;;;;2.67;0.50;;;;;;;;;;5035011;28;20551;-77
2024/02/19 11:35:31;;;;;;;3.15;0.50;;;;;;;;;;5042926;28;20034;-77
2024/02/19 11:37:57;;;;;;;0.88;0.40;;;;;;;;;;5018623;28;20025;-78
2024/02/19 11:40:32;;;;;;;1.38;0.73;;;;;;;;;;5039788;28;20123;-78
2024/02/19 11:43:02;;;;;;;1.02;0.60;;;;;;;;;;5023903;28;20037;-79
2024/02/19 11:45:30;;;;;;;0.88;0.40;;;;;;;;;;5021525;28;20156;-79
2024/02/19 11:47:56;;;;;;;4.00;0.50;;;;;;;;;;5019457;28;20062;-78
2024/02/19 11:50:25;;;;;;;0.60;0.60;;;;;;;;;;5037353;28;20022;-79
2024/02/19 11:52:53;;;;;;;1.63;0.70;;;;;;;;;;5023231;28;20018;-78
2024/02/19 11:55:19;;;;;;;1.65;0.80;;;;;;;;;;5026448;28;20017;-77
2024/02/19 11:57:46;;;;;;;3.00;0.70;;;;;;;;;;5029967;28;20033;-78
2024/02/19 12:00:16;;;;;;;1.80;0.98;;;;;;;;;;5030412;28;20045;-78
2024/02/19 12:02:43;;;;;;;1.67;1.13;;;;;;;;;;5041822;28;20026;-78
2024/02/19 12:05:10;;;;;;;4.45;0.93;;;;;;;;;;5019915;28;20030;-78
2024/02/19 12:07:38;;;;;;;6.65;3.95;;;;;;;;;;5020177;28;20049;-79
2024/02/19 12:10:06;;;;;;;5.38;3.75;;;;;;;;;;5035676;28;20033;-79
2024/02/19 12:12:32;;;;;;;3.20;2.00;;;;;;;;;;5020429;28;20025;-77
2024/02/19 12:14:59;;;;;;;6.07;4.80;;;;;;;;;;5018347;28;20610;-78
2024/02/19 12:17:26;;;;;;;8.52;5.18;;;;;;;;;;5019370;28;20026;-79
2024/02/19 12:19:53;;;;;;;8.15;5.68;;;;;;;;;;5036099;28;20026;-78
2024/02/19 12:22:19;;;;;;;8.05;5.05;;;;;;;;;;5041851;28;20021;-77
2024/02/19 12:24:45;;;;;;;21.98;12.48;;;;;;;;;;5025461;28;20030;-78
2024/02/19 12:27:11;;;;;;;22.70;12.32;;;;;;;;;;5035879;28;20026;-77
2024/02/19 12:29:37;;;;;;;14.35;6.50;;;;;;;;;;5052720;28;20064;-77
2024/02/19 12:32:03;;;;;;;8.50;5.50;;;;;;;;;;5036042;28;20018;-77
2024/02/19 12:34:29;;;;;;;7.53;4.75;;;;;;;;;;5041397;28;20018;-76
2024/02/19 12:36:55;;;;;;;7.53;3.92;;;;;;;;;;5039670;28;20018;-78
2024/02/19 12:39:25;;;;;;;7.47;4.10;;;;;;;;;;5051798;28;20026;-77
2024/02/19 12:41:51;;;;;;;14.48;7.63;;;;;;;;;;5035878;28;20018;-76
2024/02/19 12:44:17;;;;;;;7.65;3.75;;;;;;;;;;5021864;28;20018;-78
2024/02/19 12:46:44;;;;;;;6.15;2.30;;;;;;;;;;5021538;28;20546;-77
2024/02/19 12:49:10;;;;;;;5.93;2.75;;;;;;;;;;5033216;28;20023;-78
2024/02/19 12:51:37;;;;;;;8.88;4.82;;;;;;;;;;5022537;28;20018;-78
2024/02/19 12:54:06;;;;;;;9.32;5.18;;;;;;;;;;5038500;28;20050;-77
2024/02/19 12:56:32;;;;;;;3.78;1.90;;;;;;;;;;5051868;28;20478;-78
2024/02/19 12:58:58;;;;;;;5.60;3.45;;;;;;;;;;5035729;28;20109;-76
2024/02/19 13:01:24;;;;;;;4.20;3.08;;;;;;;;;;5040013;28;20432;-77
2024/02/19 13:03:50;;;;;;;1.45;0.98;;;;;;;;;;5008917;28;20027;-77
2024/02/19 13:06:19;;;;;;;3.67;1.92;;;;;;;;;;5003444;28;20068;-77
2024/02/19 13:08:46;;;;;;;4.60;2.10;;;;;;;;;;5027547;28;20088;-77
2024/02/19 13:11:12;;;;;;;5.45;3.47;;;;;;;;;;5020451;28;20032;-79
2024/02/19 13:13:39;;;;;;;5.28;3.67;;;;;;;;;;5027284;28;20022;-79
2024/02/19 13:16:08;;;;;;;3.80;2.67;;;;;;;;;;5034173;28;20029;-79
2024/02/19 13:18:35;;;;;;;1.05;0.80;;;;;;;;;;5022672;28;20089;-77
2024/02/19 13:21:02;;;;;;;2.25;0.90;;;;;;;;;;5020439;28;20026;-77
2024/02/19 13:23:28;;;;;;;4.65;0.77;;;;;;;;;;5034979;28;20478;-79
2024/02/19 13:25:54;;;;;;;3.38;1.30;;;;;;;;;;5019556;28;20070;-79
2024/02/19 13:28:20;;;;;;;1.38;0.70;;;;;;;;;;5021966;28;20041;-77
2024/02/19 13:30:46;;;;;;;1.23;0.90;;;;;;;;;;5025073;28;20022;-77
2024/02/19 13:33:12;;;;;;;4.43;3.28;;;;;;;;;;5036021;28;20485;-76
2024/02/19 13:35:39;;;;;;;6.50;4.88;;;;;;;;;;5022392;28;20022;-79
2024/02/19 13:38:05;;;;;;;7.28;4.97;;;;;;;;;;5022565;28;20030;-78
2024/02/19 13:40:34;;;;;;;6.00;4.20;;;;;;;;;;5021198;28;20416;-79
2024/02/19 13:43:00;;;;;;;3.85;2.60;;;;;;;;;;5035156;28;20088;-79
2024/02/19 13:45:28;;;;;;;3.03;1.85;;;;;;;;;;5022545;28;20126;-78
2024/02/19 13:48:00;;;;;;;3.10;1.92;;;;;;;;;;5021998;28;20038;-79
2024/02/19 13:50:26;;;;;;;;;;;;;;;;;;5018818;28;20029;-77
2024/02/19 13:52:52;;;;;;;2.97;1.23;;;;;;;;;;5025380;28;19909;-78
2024/02/19 13:55:18;;;;;;;1.08;0.68;;;;;;;;;;5022713;28;20049;-77
2024/02/19 13:57:45;;;;;;;1.02;0.40;;;;;;;;;;5030713;28;20026;-78
2024/02/19 14:00:11;;;;;;;1.33;0.40;;;;;;;;;;5030156;28;20073;-78
2024/02/19 14:02:37;;;;;;;3.03;0.60;;;;;;;;;;5023829;28;20026;-79
2024/02/19 14:05:04;;;;;;;1.55;0.60;;;;;;;;;;5023257;28;20034;-78
2024/02/19 14:07:30;;;;;;;3.97;0.98;;;;;;;;;;5033398;28;20037;-78
2024/02/19 14:09:57;;;;;;;0.98;0.80;;;;;;;;;;5042530;28;20028;-79
2024/02/19 14:12:24;;;;;;;2.65;1.17;;;;;;;;;;5033092;28;20445;-78
2024/02/19 14:14:50;;;;;;;3.05;1.08;;;;;;;;;;5026557;28;20078;-78
2024/02/19 14:17:17;;;;;;;1.55;0.60;;;;;;;;;;5035762;28;20022;-78
2024/02/19 14:19:43;;;;;;;1.90;0.50;;;;;;;;;;5021988;28;20018;-77
2024/02/19 14:22:09;;;;;;;1.42;0.38;;;;;;;;;;5021427;28;20362;-77
2024/02/19 14:24:36;;;;;;;1.40;0.90;;;;;;;;;;5021385;28;20022;-77
2024/02/19 14:27:04;;;;;;;2.53;0.98;;;;;;;;;;5035242;28;20036;-78
2024/02/19 14:29:31;;;;;;;1.23;0.70;;;;;;;;;;5027247;28;20021;-78
2024/02/19 14:31:58;;;;;;;1.83;0.68;;;;;;;;;;5028591;28;20066;-79
2024/02/19 14:34:25;;;;;;;0.98;0.55;;;;;;;;;;5023611;28;20045;-79
2024/02/19 14:36:51;;;;;;;0.63;0.40;;;;;;;;;;5021196;28;20044;-78
2024/02/19 14:39:20;;;;;;;1.45;0.75;;;;;;;;;;5021068;28;20030;-76